Time;durP1;ratioP1;P1;durP2;ratioP2;P2;SDS_P1;SDS_P2;PMS_P1;PMS_P2;Temp;Humidity;BMP_temperature;BMP_pressure;BME280_temperature;BME280_humidity;BME280_pressure;Samples;Min_cycle;Max_cycle;Signal;HPM_P1;HPM_P2
2024/03/13 00:42:56;;;;;;;11.40;2.38;;;;;;;11.59;100.00;99066.88;4765724;30;20146;-94
2024/03/13 00:46:02;;;;;;;10.57;1.45;;;;;;;11.57;100.00;99068.88;4762087;30;20062;-94
2024/03/13 00:49:08;;;;;;;11.25;2.10;;;;;;;11.59;100.00;99070.34;4766775;29;20103;-95
2024/03/13 00:51:56;;;;;;;12.75;2.35;;;;;;;11.48;100.00;99058.38;4804396;29;20145;-93
2024/03/13 02:41:04;;;;;;;4.32;0.65;;;;;;;11.29;100.00;99005.06;4830692;29;20057;-93
2024/03/13 04:28:53;;;;;;;0.70;0.10;;;;;;;11.48;100.00;98960.50;4779126;29;20103;-93
2024/03/13 04:32:10;;;;;;;;;;;;;;;;;;;;;
2024/03/13 04:35:37;;;;;;;1.83;0.20;;;;;;;11.54;100.00;98969.53;4818558;29;20054;-94
2024/03/13 04:39:11;;;;;;;2.97;0.30;;;;;;;11.53;100.00;98963.41;4813597;29;21001;-93
2024/03/13 04:42:19;;;;;;;1.50;0.20;;;;;;;11.54;100.00;98951.84;4818721;29;20034;-93
2024/03/13 04:45:40;;;;;;;;;;;;;;;;;;;;;
2024/03/13 04:48:55;;;;;;;1.40;0.22;;;;;;;11.54;100.00;98957.13;4837015;29;20058;-93
2024/03/13 04:55:22;;;;;;;2.50;0.30;;;;;;;11.62;100.00;98958.00;4776204;29;20106;-92
2024/03/13 04:58:11;;;;;;;2.13;0.20;;;;;;;11.59;100.00;98950.44;4743735;29;20618;-92
2024/03/13 05:00:46;;;;;;;1.55;0.30;;;;;;;11.53;100.00;98942.25;4795275;29;20042;-92
2024/03/13 05:07:26;;;;;;;2.22;0.43;;;;;;;11.58;100.00;98952.25;4822019;29;20055;-94
2024/03/13 05:09:59;;;;;;;0.70;0.10;;;;;;;11.59;100.00;98939.84;4794166;29;20545;-92
2024/03/13 05:12:38;;;;;;;3.00;0.30;;;;;;;11.63;100.00;98943.75;4787471;29;20034;-93
2024/03/13 05:15:11;;;;;;;1.30;0.20;;;;;;;11.60;100.00;98944.97;4801194;29;20052;-92
2024/03/13 05:17:40;;;;;;;1.55;0.35;;;;;;;11.63;100.00;98956.97;4791893;29;20123;-93
2024/03/13 05:20:17;;;;;;;2.15;0.20;;;;;;;11.62;100.00;98942.94;4802656;29;20072;-91
2024/03/13 05:22:50;;;;;;;1.07;0.20;;;;;;;11.68;100.00;98957.25;4794189;29;20042;-93
2024/03/13 05:25:22;;;;;;;3.55;0.30;;;;;;;11.65;100.00;98955.81;4777134;29;20039;-93
2024/03/13 05:27:57;;;;;;;5.07;0.40;;;;;;;11.63;100.00;98954.34;4778548;29;20557;-94
2024/03/13 05:30:40;;;;;;;;;;;;;;;;;;;;;
2024/03/13 05:33:36;;;;;;;1.10;0.20;;;;;;;11.64;100.00;98948.06;4819066;29;20443;-95
2024/03/13 05:36:11;;;;;;;2.33;0.47;;;;;;;11.63;100.00;98955.16;4814138;29;20033;-95
2024/03/13 05:38:40;;;;;;;3.20;0.32;;;;;;;11.62;100.00;98956.19;4779114;29;20058;-93
2024/03/13 05:41:20;;;;;;;1.88;0.10;;;;;;;11.65;100.00;98958.47;4793343;29;20065;-95
2024/03/13 05:44:08;;;;;;;2.83;0.40;;;;;;;11.63;100.00;98951.69;4780066;29;20042;-95
2024/03/13 05:46:36;;;;;;;5.68;0.30;;;;;;;11.53;100.00;98944.09;4806149;29;20057;-92
2024/03/13 05:49:07;;;;;;;2.92;0.30;;;;;;;11.59;100.00;98961.03;4798658;29;20137;-94
2024/03/13 05:51:57;;;;;;;1.25;0.30;;;;;;;11.64;100.00;98962.09;4812541;29;20054;-93
2024/03/13 05:55:26;;;;;;;0.90;0.10;;;;;;;11.64;100.00;98961.28;4811370;29;20041;-93
2024/03/13 06:00:43;;;;;;;3.30;0.20;;;;;;;11.59;100.00;98966.31;4829840;29;20033;-95
2024/03/13 06:06:27;;;;;;;1.50;0.35;;;;;;;11.66;100.00;98970.66;4809565;29;20045;-93
2024/03/13 06:09:28;;;;;;;1.48;0.10;;;;;;;11.62;100.00;98965.94;4837024;29;20040;-94
2024/03/13 06:12:33;;;;;;;1.33;0.73;;;;;;;11.66;100.00;98970.66;4785572;29;20047;-94
2024/03/13 06:15:12;;;;;;;1.75;0.25;;;;;;;11.67;100.00;98971.50;4813597;29;20062;-93
2024/03/13 06:21:37;;;;;;;0.82;0.28;;;;;;;11.60;100.00;98966.13;4811048;29;20048;-92
2024/03/13 06:24:10;;;;;;;1.02;0.10;;;;;;;11.65;100.00;98963.75;4809694;29;20136;-92
2024/03/13 06:30:12;;;;;;;1.83;0.20;;;;;;;11.65;100.00;98965.56;4827239;29;19968;-93
2024/03/13 06:33:19;;;;;;;1.83;0.15;;;;;;;11.58;100.00;98957.56;4803002;29;20042;-93
2024/03/13 06:41:39;;;;;;;3.20;0.30;;;;;;;11.64;100.00;98966.59;4846682;29;20049;-94
2024/03/13 06:45:36;;;;;;;3.75;0.82;;;;;;;11.62;100.00;98965.94;4830741;29;20082;-94
2024/03/13 06:48:26;;;;;;;2.13;0.20;;;;;;;11.61;100.00;98970.41;4795227;29;20091;-95
2024/03/13 06:51:14;;;;;;;0.45;0.13;;;;;;;11.60;100.00;98962.66;4782740;29;20046;-94
2024/03/13 06:53:48;;;;;;;1.48;0.20;;;;;;;11.54;100.00;98954.47;4794840;29;20038;-95
2024/03/13 06:56:47;;;;;;;1.15;0.17;;;;;;;11.58;100.00;98962.03;4795697;29;20387;-94
2024/03/13 06:59:28;;;;;;;0.32;0.10;;;;;;;11.59;100.00;98959.22;4783689;29;20063;-94
2024/03/13 07:03:01;;;;;;;2.22;0.20;;;;;;;11.59;100.00;98967.16;4788122;29;20043;-89
2024/03/13 07:06:18;;;;;;;1.40;0.13;;;;;;;11.52;100.00;98969.72;4768348;29;20038;-96
2024/03/13 07:09:36;;;;;;;3.42;0.10;;;;;;;11.55;100.00;98981.75;4809038;29;20086;-95
2024/03/13 07:13:03;;;;;;;0.85;0.10;;;;;;;11.55;100.00;98984.38;4803227;29;20042;-95
2024/03/13 07:16:16;;;;;;;0.68;0.17;;;;;;;11.59;100.00;98983.03;4799612;29;20038;-93
2024/03/13 07:19:19;;;;;;;0.98;0.15;;;;;;;11.61;100.00;98986.28;4780212;29;20489;-94
2024/03/13 07:22:28;;;;;;;1.65;0.10;;;;;;;11.63;100.00;98983.44;4774052;29;20091;-95
2024/03/13 07:25:24;;;;;;;2.08;0.20;;;;;;;11.64;100.00;98998.34;4783213;29;20038;-96
2024/03/13 07:28:32;;;;;;;0.52;0.10;;;;;;;11.63;100.00;98996.69;4788741;29;20447;-95
2024/03/13 07:31:23;;;;;;;0.25;0.03;;;;;;;11.61;100.00;99004.00;4773461;29;20702;-95
2024/03/13 07:34:00;;;;;;;0.17;0.00;;;;;;;11.61;100.00;99004.81;4797006;29;20042;-95
2024/03/13 07:36:28;;;;;;;0.28;0.10;;;;;;;11.64;100.00;99022.16;4795249;29;20405;-87
2024/03/13 07:38:58;;;;;;;0.43;0.30;;;;;;;11.62;100.00;99019.69;4792807;29;20030;-94
2024/03/13 07:41:25;;;;;;;2.35;0.10;;;;;;;11.47;100.00;99024.19;4796027;29;20129;-95
2024/03/13 07:43:53;;;;;;;0.40;0.30;;;;;;;11.35;100.00;99008.81;4791076;29;20035;-93
2024/03/13 07:46:19;;;;;;;0.13;0.10;;;;;;;11.28;100.00;99023.75;4791900;29;20056;-91
2024/03/13 07:48:45;;;;;;;0.00;0.00;;;;;;;11.20;100.00;99019.41;4798113;29;20050;-93
2024/03/13 07:51:11;;;;;;;0.10;0.10;;;;;;;11.15;100.00;99027.03;4810011;29;20061;-92
2024/03/13 07:53:37;;;;;;;0.00;0.00;;;;;;;11.03;100.00;99032.00;4838239;29;20498;-91
2024/03/13 07:56:04;;;;;;;0.13;0.00;;;;;;;10.85;100.00;99033.16;4815485;29;20046;-84
2024/03/13 07:58:32;;;;;;;0.00;0.00;;;;;;;10.69;100.00;99036.78;4809227;29;20586;-84
2024/03/13 08:01:01;;;;;;;1.55;0.00;;;;;;;10.62;100.00;99036.69;4808603;29;20042;-84
2024/03/13 08:03:27;;;;;;;0.00;0.00;;;;;;;10.57;100.00;99049.63;4815932;29;20034;-84
2024/03/13 08:05:55;;;;;;;1.35;0.00;;;;;;;10.52;100.00;99047.53;4821892;29;20828;-86
2024/03/13 08:08:21;;;;;;;2.45;0.00;;;;;;;10.52;100.00;99054.63;4810795;29;20045;-86
2024/03/13 08:10:46;;;;;;;0.00;0.00;;;;;;;10.50;100.00;99052.16;4833628;29;20046;-85
2024/03/13 08:13:12;;;;;;;0.00;0.00;;;;;;;10.50;100.00;99060.06;4811372;29;20455;-86
2024/03/13 08:15:39;;;;;;;0.00;0.00;;;;;;;10.47;100.00;99064.88;4816574;29;20057;-87
2024/03/13 08:18:05;;;;;;;0.25;0.00;;;;;;;10.43;100.00;99072.34;4825890;29;20040;-85
2024/03/13 08:20:31;;;;;;;0.00;0.00;;;;;;;10.44;100.00;99071.31;4810936;29;20095;-88
2024/03/13 08:22:58;;;;;;;0.00;0.00;;;;;;;10.37;100.00;99057.16;4819663;29;20044;-86
2024/03/13 08:25:23;;;;;;;0.00;0.00;;;;;;;10.37;100.00;99068.56;4814920;29;20052;-85
2024/03/13 08:27:49;;;;;;;0.00;0.00;;;;;;;10.36;100.00;99072.22;4841701;29;20029;-86
2024/03/13 08:30:20;;;;;;;0.00;0.00;;;;;;;10.37;100.00;99065.94;4810590;29;20042;-89
2024/03/13 08:32:49;;;;;;;0.00;0.00;;;;;;;10.44;100.00;99073.97;4810279;29;20521;-87
2024/03/13 08:35:15;;;;;;;0.00;0.00;;;;;;;10.42;100.00;99083.88;4794419;29;20030;-86
2024/03/13 08:37:44;;;;;;;0.00;0.00;;;;;;;10.42;100.00;99076.78;4832721;29;20034;-86
2024/03/13 08:40:11;;;;;;;0.00;0.00;;;;;;;10.43;100.00;99086.34;4817103;29;20464;-86
2024/03/13 08:42:39;;;;;;;0.00;0.00;;;;;;;10.47;100.00;99084.22;4812847;29;20508;-86
2024/03/13 08:45:08;;;;;;;0.00;0.00;;;;;;;10.49;100.00;99082.22;4810904;29;20056;-86
2024/03/13 08:47:35;;;;;;;0.10;0.00;;;;;;;10.54;100.00;99093.06;4826800;29;20078;-87
2024/03/13 08:50:02;;;;;;;0.00;0.00;;;;;;;10.57;100.00;99093.72;4803708;29;20197;-85
2024/03/13 08:52:28;;;;;;;0.00;0.00;;;;;;;10.59;100.00;99097.81;4823032;29;20038;-86
2024/03/13 08:54:54;;;;;;;0.00;0.00;;;;;;;10.53;100.00;99099.34;4806155;29;20103;-86
2024/03/13 08:57:20;;;;;;;0.00;0.00;;;;;;;10.44;100.00;99100.38;4783538;29;20050;-88
2024/03/13 08:59:49;;;;;;;0.00;0.00;;;;;;;10.34;100.00;99100.63;4792401;29;20831;-86
2024/03/13 09:02:14;;;;;;;0.38;0.10;;;;;;;10.28;100.00;99109.25;4781734;29;20049;-87
2024/03/13 09:04:40;;;;;;;0.10;0.00;;;;;;;10.27;100.00;99116.34;4792384;29;20042;-88
2024/03/13 09:07:10;;;;;;;0.08;0.00;;;;;;;10.27;100.00;99120.81;4817637;29;20045;-86
2024/03/13 09:09:37;;;;;;;0.00;0.00;;;;;;;10.26;100.00;99119.16;4774994;29;20041;-87
2024/03/13 09:12:07;;;;;;;0.10;0.10;;;;;;;10.26;100.00;99119.16;4796654;29;20057;-86
2024/03/13 09:14:38;;;;;;;0.10;0.00;;;;;;;10.30;100.00;99118.63;4790617;29;20042;-86
2024/03/13 09:17:08;;;;;;;0.10;0.00;;;;;;;10.25;100.00;99115.72;4784730;29;20045;-86
2024/03/13 09:19:37;;;;;;;0.00;0.00;;;;;;;10.31;100.00;99114.16;4807960;29;20426;-86
2024/03/13 09:22:11;;;;;;;0.00;0.00;;;;;;;10.38;100.00;99117.75;4814431;29;20046;-87
2024/03/13 09:24:39;;;;;;;0.00;0.00;;;;;;;10.39;100.00;99121.22;4792219;29;20114;-87
2024/03/13 09:27:05;;;;;;;0.15;0.00;;;;;;;10.40;100.00;99122.88;4791018;29;20386;-88
2024/03/13 09:29:31;;;;;;;0.03;0.00;;;;;;;10.40;100.00;99128.16;4808143;29;20114;-87
2024/03/13 09:31:57;;;;;;;0.10;0.10;;;;;;;10.39;100.00;99126.50;4782384;29;20494;-86
2024/03/13 09:34:23;;;;;;;0.30;0.00;;;;;;;10.37;100.00;99126.66;4802009;29;20038;-86
2024/03/13 09:36:49;;;;;;;2.22;0.00;;;;;;;10.40;100.00;99126.31;4788423;29;20042;-86
2024/03/13 09:39:15;;;;;;;0.00;0.00;;;;;;;10.41;100.00;99117.41;4798996;29;20060;-87
2024/03/13 09:41:41;;;;;;;0.75;0.00;;;;;;;10.52;100.00;99120.66;4790445;29;20115;-87
2024/03/13 09:44:09;;;;;;;0.00;0.00;;;;;;;10.58;100.00;99122.59;4820794;29;20022;-86
2024/03/13 09:46:37;;;;;;;0.00;0.00;;;;;;;10.67;100.00;99124.16;4782892;29;20046;-84
2024/03/13 09:49:04;;;;;;;0.00;0.00;;;;;;;10.69;100.00;99121.34;4822170;29;20041;-86
2024/03/13 09:51:31;;;;;;;0.05;0.00;;;;;;;10.67;100.00;99129.47;4827162;29;20029;-86
2024/03/13 09:54:01;;;;;;;0.00;0.00;;;;;;;10.70;100.00;99130.09;4807909;29;20690;-86
2024/03/13 09:56:29;;;;;;;0.10;0.10;;;;;;;10.70;100.00;99135.41;4822367;29;20046;-86
2024/03/13 09:58:56;;;;;;;0.30;0.10;;;;;;;10.69;100.00;99139.03;4834988;29;20034;-86
2024/03/13 10:01:26;;;;;;;0.00;0.00;;;;;;;10.69;100.00;99137.19;4844283;29;20488;-87
2024/03/13 10:04:02;;;;;;;0.15;0.10;;;;;;;10.70;100.00;99141.50;4797529;29;20113;-87
2024/03/13 10:06:32;;;;;;;0.20;0.20;;;;;;;10.74;100.00;99145.44;4823061;29;20038;-86
2024/03/13 10:08:59;;;;;;;0.20;0.20;;;;;;;10.77;100.00;99144.25;4810550;29;20116;-85
2024/03/13 10:11:26;;;;;;;0.30;0.30;;;;;;;10.80;100.00;99146.53;4824956;29;20057;-86
2024/03/13 10:13:58;;;;;;;0.55;0.20;;;;;;;10.84;100.00;99141.72;4823683;29;20121;-90
2024/03/13 10:16:33;;;;;;;0.40;0.13;;;;;;;10.85;100.00;99146.81;4815312;29;20056;-85
2024/03/13 10:19:01;;;;;;;0.10;0.10;;;;;;;10.83;100.00;99145.38;4823833;29;20041;-85
2024/03/13 10:21:28;;;;;;;0.20;0.20;;;;;;;10.84;100.00;99150.47;4834997;29;20034;-85
2024/03/13 10:23:59;;;;;;;1.42;0.40;;;;;;;10.84;100.00;99142.56;4801112;29;20035;-86
2024/03/13 10:26:26;;;;;;;0.17;0.17;;;;;;;10.82;100.00;99149.00;4813627;29;20046;-85
2024/03/13 10:28:52;;;;;;;0.20;0.20;;;;;;;10.83;100.00;99155.94;4805388;29;20041;-86
2024/03/13 10:31:18;;;;;;;0.25;0.25;;;;;;;10.83;100.00;99158.59;4814649;29;20612;-86
2024/03/13 10:33:44;;;;;;;0.10;0.10;;;;;;;10.83;100.00;99162.03;4824575;29;20026;-86
2024/03/13 10:36:13;;;;;;;0.08;0.08;;;;;;;10.85;100.00;99160.03;4813707;29;20038;-86
2024/03/13 10:38:41;;;;;;;0.10;0.10;;;;;;;10.88;100.00;99151.75;4823690;29;20037;-86
2024/03/13 10:41:11;;;;;;;0.30;0.10;;;;;;;10.88;100.00;99153.56;4821040;29;20026;-87
2024/03/13 10:43:37;;;;;;;1.25;0.10;;;;;;;10.88;100.00;99151.75;4807399;29;20081;-85
2024/03/13 10:46:04;;;;;;;0.30;0.20;;;;;;;10.88;100.00;99157.03;4818709;29;20424;-86
2024/03/13 10:48:30;;;;;;;2.00;0.10;;;;;;;10.91;100.00;99156.69;4807347;29;20056;-86
2024/03/13 10:51:00;;;;;;;0.40;0.15;;;;;;;10.92;100.00;99153.03;4818100;29;20042;-86
2024/03/13 10:53:26;;;;;;;0.17;0.17;;;;;;;10.88;100.00;99167.63;4830064;29;20042;-85
2024/03/13 10:55:52;;;;;;;0.20;0.20;;;;;;;10.92;100.00;99168.88;4804821;29;20046;-86
2024/03/13 10:58:22;;;;;;;0.10;0.10;;;;;;;11.00;100.00;99172.47;4805396;29;20243;-87
2024/03/13 11:00:51;;;;;;;0.60;0.13;;;;;;;10.96;100.00;99174.66;4807135;29;20596;-86
2024/03/13 11:03:17;;;;;;;0.20;0.20;;;;;;;10.92;100.00;99160.16;4811043;29;20065;-86
2024/03/13 11:05:44;;;;;;;0.25;0.20;;;;;;;10.94;100.00;99168.72;4806167;29;20034;-85
2024/03/13 11:08:10;;;;;;;0.77;0.40;;;;;;;10.97;100.00;99160.44;4822155;29;20037;-85
2024/03/13 11:10:36;;;;;;;0.88;0.30;;;;;;;11.02;100.00;99173.13;4836837;29;20049;-85
2024/03/13 11:13:05;;;;;;;0.40;0.35;;;;;;;11.10;100.00;99175.69;4824557;29;20486;-85
2024/03/13 11:15:37;;;;;;;0.20;0.20;;;;;;;11.13;100.00;99172.69;4826586;29;20037;-84
2024/03/13 11:18:04;;;;;;;0.20;0.20;;;;;;;11.14;100.00;99174.34;4800290;29;20099;-85
2024/03/13 11:20:37;;;;;;;0.20;0.15;;;;;;;11.20;100.00;99167.50;4837463;29;20042;-87
2024/03/13 11:23:12;;;;;;;0.00;0.00;;;;;;;11.19;100.00;99175.63;4810968;29;20046;-87
2024/03/13 11:25:41;;;;;;;0.00;0.00;;;;;;;11.12;100.00;99180.78;4829158;29;20041;-85
2024/03/13 11:28:14;;;;;;;0.10;0.10;;;;;;;11.12;100.00;99186.91;4814938;29;20576;-86
2024/03/13 11:30:40;;;;;;;0.52;0.10;;;;;;;11.11;100.00;99189.72;4838023;29;20041;-86
2024/03/13 11:33:16;;;;;;;1.20;0.10;;;;;;;11.19;100.00;99191.47;4820846;29;20049;-84
2024/03/13 11:35:42;;;;;;;0.05;0.05;;;;;;;11.25;100.00;99190.75;4807181;29;20448;-88
2024/03/13 11:38:11;;;;;;;0.10;0.10;;;;;;;11.26;100.00;99190.59;4802604;29;20072;-87
2024/03/13 11:40:37;;;;;;;0.10;0.10;;;;;;;11.25;100.00;99196.06;4806096;29;20073;-86
2024/03/13 11:43:04;;;;;;;0.08;0.00;;;;;;;11.24;100.00;99192.59;4824486;29;20471;-86
2024/03/13 11:45:30;;;;;;;0.10;0.10;;;;;;;11.32;100.00;99202.28;4793769;29;20486;-87
2024/03/13 11:48:01;;;;;;;0.20;0.00;;;;;;;11.40;100.00;99207.47;4829953;29;20049;-87
2024/03/13 11:50:27;;;;;;;0.63;0.08;;;;;;;11.51;100.00;99210.69;4814916;29;20054;-86
2024/03/13 11:52:58;;;;;;;0.80;0.00;;;;;;;11.60;100.00;99211.41;4824263;29;20485;-86
2024/03/13 11:55:29;;;;;;;0.10;0.10;;;;;;;11.61;100.00;99199.84;4823537;29;20069;-86
2024/03/13 11:58:02;;;;;;;1.27;0.08;;;;;;;11.58;100.00;99195.72;4823462;29;20054;-87
2024/03/13 12:00:29;;;;;;;0.20;0.10;;;;;;;11.51;100.00;99200.09;4839150;29;20037;-86
2024/03/13 12:02:57;;;;;;;0.00;0.00;;;;;;;11.51;100.00;99200.94;4832033;29;20101;-87
2024/03/13 12:05:32;;;;;;;0.00;0.00;;;;;;;11.48;100.00;99200.47;4821743;29;20126;-87
2024/03/13 12:07:59;;;;;;;0.38;0.00;;;;;;;11.37;100.00;99199.09;4830098;29;20076;-86
2024/03/13 12:10:27;;;;;;;0.00;0.00;;;;;;;11.41;100.00;99214.44;4817325;29;20048;-86
2024/03/13 12:12:53;;;;;;;0.20;0.10;;;;;;;11.45;100.00;99214.88;4798838;29;20130;-86
2024/03/13 12:15:20;;;;;;;0.15;0.10;;;;;;;11.44;100.00;99215.88;4810770;29;20034;-86
2024/03/13 12:18:11;;;;;;;0.52;0.10;;;;;;;11.48;100.00;99217.16;4809852;29;20034;-85
2024/03/13 12:20:47;;;;;;;0.20;0.20;;;;;;;11.52;100.00;99222.91;4820669;29;20035;-87
2024/03/13 12:23:17;;;;;;;0.10;0.10;;;;;;;11.46;100.00;99205.94;4794568;29;20157;-87
2024/03/13 12:25:44;;;;;;;0.00;0.00;;;;;;;11.46;100.00;99213.88;4810824;29;20038;-86
2024/03/13 12:28:20;;;;;;;0.10;0.10;;;;;;;11.43;100.00;99216.88;4826010;29;20045;-86
2024/03/13 12:30:50;;;;;;;0.00;0.00;;;;;;;11.39;100.00;99211.13;4823028;29;20393;-86
2024/03/13 12:33:16;;;;;;;0.00;0.00;;;;;;;11.43;100.00;99211.59;4808768;29;20510;-86
2024/03/13 12:35:44;;;;;;;0.00;0.00;;;;;;;11.38;100.00;99206.84;4823970;29;20042;-87
2024/03/13 12:38:13;;;;;;;0.00;0.00;;;;;;;11.44;100.00;99218.53;4826456;29;20470;-87
2024/03/13 12:40:45;;;;;;;0.10;0.00;;;;;;;11.47;100.00;99214.69;4825288;29;20120;-86
2024/03/13 12:43:14;;;;;;;0.00;0.00;;;;;;;11.53;100.00;99221.94;4810812;29;20497;-86
2024/03/13 12:45:43;;;;;;;0.00;0.00;;;;;;;11.41;100.00;99201.19;4810029;29;20034;-87
2024/03/13 12:48:09;;;;;;;0.28;0.00;;;;;;;11.47;100.00;99207.56;4797569;29;20459;-86
2024/03/13 12:50:44;;;;;;;0.00;0.00;;;;;;;11.49;100.00;99207.41;4821775;29;20050;-87
2024/03/13 12:53:24;;;;;;;0.00;0.00;;;;;;;11.54;100.00;99200.56;4795244;29;20192;-85
2024/03/13 12:55:50;;;;;;;0.20;0.00;;;;;;;11.43;100.00;99198.38;4807855;29;20046;-84
2024/03/13 12:58:17;;;;;;;0.98;0.10;;;;;;;11.33;100.00;99197.78;4778712;29;20059;-85
2024/03/13 13:00:46;;;;;;;0.43;0.00;;;;;;;11.30;100.00;99199.00;4821676;29;20038;-87
2024/03/13 13:03:24;;;;;;;2.60;0.10;;;;;;;11.14;100.00;99203.44;4775890;29;20084;-88
2024/03/13 13:05:50;;;;;;;0.00;0.00;;;;;;;11.06;100.00;99207.94;4812292;29;20042;-88
2024/03/13 13:08:21;;;;;;;0.25;0.00;;;;;;;11.15;100.00;99209.53;4818680;29;20083;-86
2024/03/13 13:10:52;;;;;;;1.00;0.10;;;;;;;11.22;100.00;99212.28;4817853;29;20209;-86
2024/03/13 13:14:01;;;;;;;1.33;0.32;;;;;;;11.25;100.00;99204.81;4803012;29;20114;-86
2024/03/13 13:16:28;;;;;;;1.48;0.08;;;;;;;11.24;100.00;99212.94;4800520;29;20042;-86
2024/03/13 13:18:53;;;;;;;0.47;0.10;;;;;;;11.27;100.00;99216.06;4802673;29;20404;-86
2024/03/13 13:21:19;;;;;;;0.22;0.20;;;;;;;11.20;100.00;99206.34;4820219;29;20050;-87
2024/03/13 13:23:45;;;;;;;1.65;0.10;;;;;;;11.16;100.00;99214.63;4804908;29;20042;-87
2024/03/13 13:26:11;;;;;;;0.17;0.10;;;;;;;11.13;100.00;99219.47;4834773;29;20638;-87
2024/03/13 13:28:36;;;;;;;0.25;0.10;;;;;;;11.17;100.00;99218.09;4820641;29;20086;-86
2024/03/13 13:31:02;;;;;;;0.20;0.10;;;;;;;11.25;100.00;99214.56;4780155;29;20497;-86
2024/03/13 13:33:31;;;;;;;0.20;0.20;;;;;;;11.31;100.00;99210.41;4822582;29;20033;-84
2024/03/13 13:35:57;;;;;;;0.75;0.10;;;;;;;11.27;100.00;99213.41;4814601;29;20957;-86
2024/03/13 13:38:23;;;;;;;0.30;0.20;;;;;;;11.22;100.00;99222.88;4788948;29;20035;-87
2024/03/13 13:41:03;;;;;;;0.10;0.10;;;;;;;11.17;100.00;99218.09;4820253;29;20031;-85
2024/03/13 13:43:32;;;;;;;0.85;0.10;;;;;;;11.13;100.00;99230.06;4806346;29;20049;-85
2024/03/13 13:46:08;;;;;;;0.20;0.20;;;;;;;11.11;100.00;99224.13;4809775;29;20133;-87
2024/03/13 13:48:35;;;;;;;0.28;0.13;;;;;;;10.95;100.00;99233.81;4821564;29;20055;-87
2024/03/13 13:51:01;;;;;;;1.38;0.20;;;;;;;10.89;100.00;99224.75;4838473;29;20030;-85
2024/03/13 13:53:29;;;;;;;0.00;0.00;;;;;;;10.80;100.00;99228.47;4810312;29;20042;-93
2024/03/13 13:55:58;;;;;;;0.00;0.00;;;;;;;10.70;100.00;99223.44;4796245;29;20060;-94
2024/03/13 13:58:37;;;;;;;0.75;0.15;;;;;;;10.73;100.00;99222.25;4823338;29;20129;-94
2024/03/13 14:01:25;;;;;;;1.13;0.15;;;;;;;10.70;100.00;99220.78;4815267;29;20587;-94
2024/03/13 14:04:11;;;;;;;0.20;0.10;;;;;;;10.75;100.00;99218.44;4809617;29;20038;-93
2024/03/13 14:07:42;;;;;;;0.00;0.00;;;;;;;10.79;100.00;99214.44;4823989;29;20133;-93
2024/03/13 14:10:14;;;;;;;0.08;0.05;;;;;;;10.87;100.00;99203.00;4796017;29;20551;-93
2024/03/13 14:13:21;;;;;;;1.25;0.05;;;;;;;10.92;100.00;99213.84;4805291;29;20038;-93
2024/03/13 14:16:38;;;;;;;2.75;0.20;;;;;;;11.05;100.00;99212.44;4807551;29;20038;-93
2024/03/13 14:19:12;;;;;;;0.40;0.20;;;;;;;10.94;100.00;99213.66;4775481;29;20195;-92
2024/03/13 14:34:10;;;;;;;0.93;0.20;;;;;;;11.01;100.00;99222.53;4833631;29;20046;-91
2024/03/13 14:45:53;;;;;;;1.38;0.20;;;;;;;11.04;100.00;99211.59;4841359;29;20140;-91
2024/03/13 14:53:15;;;;;;;3.33;0.50;;;;;;;11.08;100.00;99222.66;4806665;29;20061;-92
2024/03/13 14:55:42;;;;;;;;;;;;;;;11.03;100.00;99220.53;4806541;29;20053;-86
2024/03/13 14:58:08;;;;;;;1.10;0.20;;;;;;;11.16;100.00;99227.84;4790359;29;19924;-86
2024/03/13 15:04:56;;;;;;;3.25;0.40;;;;;;;11.10;100.00;99231.22;4794776;29;20058;-87
2024/03/13 15:07:59;;;;;;;0.30;0.10;;;;;;;11.03;100.00;99223.19;4787014;29;20060;-85
2024/03/13 15:23:03;;;;;;;0.82;0.20;;;;;;;10.66;100.00;99232.69;4761834;30;20062;-84
2024/03/13 15:25:31;;;;;;;1.10;0.20;;;;;;;10.71;100.00;99234.81;4773501;29;20061;-84
2024/03/13 15:27:57;;;;;;;0.10;0.05;;;;;;;10.76;100.00;99241.22;4789533;29;20107;-83
2024/03/13 15:30:23;;;;;;;0.10;0.10;;;;;;;10.75;100.00;99238.75;4813184;29;20050;-83
2024/03/13 15:32:49;;;;;;;0.60;0.20;;;;;;;10.75;100.00;99233.47;4801391;29;21025;-85
2024/03/13 15:39:43;;;;;;;0.80;0.20;;;;;;;10.62;100.00;99226.94;4782662;29;20058;-83
2024/03/13 15:42:10;;;;;;;0.77;0.20;;;;;;;10.52;100.00;99239.56;4772514;29;20051;-85
2024/03/13 15:44:37;;;;;;;0.70;0.10;;;;;;;10.44;100.00;99240.38;4808430;29;20050;-83
2024/03/13 15:47:05;;;;;;;1.02;0.10;;;;;;;10.39;100.00;99232.16;4801415;29;20072;-84
2024/03/13 15:53:00;;;;;;;0.80;0.68;;;;;;;10.41;100.00;99244.22;4817141;29;20103;-84
2024/03/13 16:01:09;;;;;;;0.10;0.00;;;;;;;10.33;100.00;99232.84;4748191;30;20068;-84
2024/03/13 16:21:25;;;;;;;0.88;0.10;;;;;;;10.01;100.00;99222.25;5042278;24;20068;-83
2024/03/13 16:23:50;;;;;;;1.15;0.30;;;;;;;10.01;100.00;99225.72;4873163;29;20041;-84
2024/03/13 16:26:16;;;;;;;1.00;0.10;;;;;;;9.97;100.00;99221.78;4842917;29;20420;-83
2024/03/13 16:29:00;;;;;;;0.70;0.20;;;;;;;10.08;100.00;99241.69;4859914;29;20596;-84
2024/03/13 16:44:08;;;;;;;0.65;0.20;;;;;;;9.92;100.00;99230.19;4870074;29;20052;-83
2024/03/13 16:46:34;;;;;;;0.68;0.30;;;;;;;9.95;100.00;99234.34;4825157;29;20045;-84
2024/03/13 16:49:00;;;;;;;0.75;0.13;;;;;;;9.96;100.00;99235.13;4828054;29;20427;-84
2024/03/13 16:51:25;;;;;;;1.08;0.03;;;;;;;9.91;100.00;99239.13;4828689;29;20049;-84
2024/03/13 16:53:51;;;;;;;0.15;0.10;;;;;;;9.88;100.00;99238.63;4835371;29;20093;-83
2024/03/13 17:00:16;;;;;;;0.20;0.17;;;;;;;9.89;100.00;99229.75;4854500;29;20493;-84
2024/03/13 17:02:42;;;;;;;1.02;0.40;;;;;;;9.95;100.00;99233.50;4858660;29;20095;-84
2024/03/13 17:05:07;;;;;;;2.10;1.40;;;;;;;10.01;100.00;99227.53;4843379;29;20036;-84
2024/03/13 17:07:49;;;;;;;0.55;0.40;;;;;;;10.10;100.00;99223.03;4858289;29;20495;-84
2024/03/13 17:10:17;;;;;;;0.30;0.30;;;;;;;10.08;100.00;99232.97;4826641;29;20489;-84
2024/03/13 17:12:46;;;;;;;5.15;0.55;;;;;;;10.07;100.00;99229.50;4825329;29;20128;-84
2024/03/13 17:15:18;;;;;;;4.38;3.10;;;;;;;10.15;100.00;99234.75;4855388;29;20065;-84
2024/03/13 17:17:50;;;;;;;1.10;0.50;;;;;;;10.12;100.00;99235.09;4832805;29;20037;-85
2024/03/13 17:20:17;;;;;;;0.57;0.40;;;;;;;10.12;100.00;99228.97;4846913;29;20584;-83
2024/03/13 17:23:33;;;;;;;0.28;0.20;;;;;;;10.11;100.00;99238.72;4851416;29;20037;-83
2024/03/13 17:25:58;;;;;;;1.77;0.35;;;;;;;10.00;100.00;99231.19;4852719;29;20112;-83
2024/03/13 17:28:24;;;;;;;0.50;0.17;;;;;;;9.95;100.00;99238.78;4857826;29;20041;-83
2024/03/13 17:30:51;;;;;;;1.75;0.28;;;;;;;9.90;100.00;99234.00;4855977;29;20040;-83
2024/03/13 17:33:19;;;;;;;0.95;0.30;;;;;;;9.92;100.00;99238.13;4852315;29;20057;-92
2024/03/13 17:35:49;;;;;;;2.15;0.40;;;;;;;9.87;100.00;99240.47;4841973;29;20037;-94
2024/03/13 17:38:15;;;;;;;3.22;0.60;;;;;;;9.86;100.00;99240.63;4845532;29;20482;-94
2024/03/13 17:40:46;;;;;;;1.00;0.80;;;;;;;9.93;100.00;99244.22;4844357;29;20492;-94
2024/03/13 17:43:15;;;;;;;1.27;0.60;;;;;;;9.94;100.00;99237.94;4852144;29;20040;-94
2024/03/13 17:45:45;;;;;;;0.73;0.45;;;;;;;9.98;100.00;99246.34;4830133;29;20417;-93
2024/03/13 17:48:14;;;;;;;1.58;1.10;;;;;;;10.00;100.00;99253.09;4832713;29;20387;-94
2024/03/13 17:50:47;;;;;;;0.88;0.73;;;;;;;9.98;100.00;99241.91;4833139;29;20040;-94
2024/03/13 17:53:18;;;;;;;4.70;0.82;;;;;;;9.95;100.00;99252.81;4862099;29;20036;-94
2024/03/13 17:55:44;;;;;;;2.60;0.93;;;;;;;9.95;100.00;99255.44;4825452;29;20070;-93
2024/03/13 17:58:11;;;;;;;1.40;0.75;;;;;;;9.93;100.00;99249.50;4829869;29;20033;-94
2024/03/13 18:00:45;;;;;;;1.33;0.63;;;;;;;9.94;100.00;99261.69;4828686;29;20045;-94
2024/03/13 18:03:12;;;;;;;2.30;0.70;;;;;;;9.92;100.00;99253.94;4844740;29;20045;-94
2024/03/13 18:05:40;;;;;;;3.70;0.70;;;;;;;9.90;100.00;99263.03;4824280;29;20041;-94
2024/03/13 18:08:07;;;;;;;7.00;3.30;;;;;;;9.86;100.00;99264.38;4851087;29;20098;-93
2024/03/13 18:10:33;;;;;;;38.92;18.25;;;;;;;9.75;100.00;99260.25;4848611;29;20033;-94
2024/03/13 18:13:02;;;;;;;5.93;3.45;;;;;;;9.70;100.00;99263.41;4846435;29;20096;-94
2024/03/13 18:15:31;;;;;;;82.32;36.92;;;;;;;9.72;100.00;99274.63;4833002;29;20050;-93